Time;durP1;ratioP1;P1;durP2;ratioP2;P2;SDS_P1;SDS_P2;PMS_P1;PMS_P2;Temp;Humidity;BMP_temperature;BMP_pressure;BME280_temperature;BME280_humidity;BME280_pressure;Samples;Min_cycle;Max_cycle;Signal;HPM_P1;HPM_P2
2021/06/13 00:01:38;;;;;;;;;;;;;;;25.84;45.42;99911.97;1691385;84;20133;-77
2021/06/13 00:04:07;;;;;;;;;;;;;;;25.83;45.32;99911.70;1707571;83;20170;-77
2021/06/13 00:06:33;;;;;;;;;;;;;;;25.83;45.36;99910.89;1707480;84;20144;-77
2021/06/13 00:08:59;;;;;;;;;;;;;;;25.82;45.32;99903.76;1691528;84;20152;-77
2021/06/13 00:11:24;;;;;;;;;;;;;;;25.77;45.42;99905.39;1707738;83;20171;-77
2021/06/13 00:13:50;;;;;;;;;;;;;;;25.74;45.51;99903.16;1707735;84;20237;-77
2021/06/13 00:16:17;;;;;;;;;;;;;;;25.71;45.54;99897.41;1715404;82;20204;-77
2021/06/13 00:18:43;;;;;;;;;;;;;;;25.69;45.54;99891.36;1736781;82;20145;-78
2021/06/13 00:21:10;;;;;;;;;;;;;;;25.65;45.57;99889.70;1737036;82;20165;-78
2021/06/13 00:23:38;;;;;;;;;;;;;;;25.65;45.56;99889.70;1731810;82;20181;-77
2021/06/13 00:26:04;;;;;;;;;;;;;;;25.62;45.58;99880.66;1725873;82;20133;-76
2021/06/13 00:28:31;;;;;;;;;;;;;;;25.60;45.67;99882.84;1736455;82;20584;-77
2021/06/13 00:30:57;;;;;;;;;;;;;;;25.55;45.72;99878.72;1707400;84;20136;-77
2021/06/13 00:33:23;;;;;;;;;;;;;;;25.52;45.84;99876.50;1706393;84;20172;-77
2021/06/13 00:35:49;;;;;;;;;;;;;;;25.47;45.96;99875.12;1707392;84;20151;-77
2021/06/13 00:38:15;;;;;;;;;;;;;;;25.47;45.96;99876.50;1707839;84;20177;-77
2021/06/13 00:40:42;;;;;;;;;;;;;;;25.48;45.97;99878.14;1707939;84;20205;-78
2021/06/13 00:43:08;;;;;;;;;;;;;;;25.49;46.01;99878.44;1707722;84;20447;-78
2021/06/13 00:45:34;;;;;;;;;;;;;;;25.48;45.92;99874.88;1707909;84;20236;-78
2021/06/13 00:48:00;;;;;;;;;;;;;;;25.48;45.90;99874.02;1707797;84;20413;-77
2021/06/13 00:50:44;;;;;;;;;;;;;;;25.50;45.82;99874.59;1707794;84;20131;-77
2021/06/13 00:53:11;;;;;;;;;;;;;;;25.49;45.73;99875.14;1681804;84;20214;-77
2021/06/13 00:55:39;;;;;;;;;;;;;;;25.49;45.66;99870.21;1707464;84;20138;-78
2021/06/13 00:58:06;;;;;;;;;;;;;;;25.48;45.62;99857.58;1707842;84;20134;-77
2021/06/13 01:00:33;;;;;;;;;;;;;;;25.46;45.58;99859.78;1707589;84;20138;-77
2021/06/13 01:03:00;;;;;;;;;;;;;;;25.41;45.60;99857.03;1707385;84;20127;-77
2021/06/13 01:05:27;;;;;;;;;;;;;;;25.34;45.69;99857.27;1707555;84;20134;-77
2021/06/13 01:08:20;;;;;;;;;;;;;;;25.29;45.79;99859.45;1708258;84;20134;-77
2021/06/13 01:11:12;;;;;;;;;;;;;;;25.27;45.88;99856.17;1721656;82;20145;-77
2021/06/13 01:13:43;;;;;;;;;;;;;;;25.24;45.93;99852.59;1736863;82;20149;-77
2021/06/13 01:16:36;;;;;;;;;;;;;;;25.26;45.90;99851.78;1736858;82;20188;-77
2021/06/13 01:19:05;;;;;;;;;;;;;;;25.29;45.85;99849.86;1736491;82;20144;-76
2021/06/13 01:21:35;;;;;;;;;;;;;;;25.29;45.81;99848.48;1732585;82;20480;-77
2021/06/13 01:24:14;;;;;;;;;;;;;;;25.28;45.74;99846.84;1737389;82;20215;-77
2021/06/13 01:27:16;;;;;;;;;;;;;;;25.28;45.70;99848.22;1737019;82;20165;-77
2021/06/13 01:29:46;;;;;;;;;;;;;;;25.28;45.59;99844.10;1737331;82;20426;-78
2021/06/13 01:32:17;;;;;;;;;;;;;;;25.23;45.57;99835.05;1736887;82;20125;-78
2021/06/13 01:34:48;;;;;;;;;;;;;;;25.18;45.61;99838.60;1737305;82;20133;-77
2021/06/13 01:37:18;;;;;;;;;;;;;;;25.16;45.67;99832.55;1736294;82;20442;-78
2021/06/13 01:39:46;;;;;;;;;;;;;;;25.14;45.69;99833.37;1736922;82;20128;-77
2021/06/13 01:42:14;;;;;;;;;;;;;;;25.14;45.66;99822.41;1736620;82;20141;-77
2021/06/13 01:44:43;;;;;;;;;;;;;;;25.12;45.71;99822.39;1736841;82;20176;-77
2021/06/13 01:47:10;;;;;;;;;;;;;;;25.10;45.69;99829.52;1737056;82;20148;-76
2021/06/13 01:49:38;;;;;;;;;;;;;;;25.09;45.68;99822.41;1737485;82;20160;-77
2021/06/13 01:52:04;;;;;;;;;;;;;;;25.05;45.75;99828.11;1736952;82;20417;-77
2021/06/13 01:54:31;;;;;;;;;;;;;;;25.03;45.76;99821.54;1737406;82;20136;-77
2021/06/13 01:56:58;;;;;;;;;;;;;;;25.04;45.77;99820.98;1736833;82;20438;-77
2021/06/13 01:59:27;;;;;;;;;;;;;;;25.05;45.75;99817.15;1735551;82;20414;-76
2021/06/13 02:01:56;;;;;;;;;;;;;;;25.04;45.69;99819.63;1736101;82;20125;-76
2021/06/13 02:04:22;;;;;;;;;;;;;;;25.04;45.65;99814.95;1736962;82;20430;-76
2021/06/13 02:06:51;;;;;;;;;;;;;;;25.04;45.62;99813.59;1709537;82;20137;-76
2021/06/13 02:09:20;;;;;;;;;;;;;;;25.05;45.54;99815.78;1736186;82;20145;-76
2021/06/13 02:11:47;;;;;;;;;;;;;;;25.03;45.54;99810.58;1708503;82;20152;-77
2021/06/13 02:14:13;;;;;;;;;;;;;;;25.01;45.59;99805.08;1736855;82;20144;-76
2021/06/13 02:16:43;;;;;;;;;;;;;;;24.97;45.63;99802.05;1736875;82;20145;-77
2021/06/13 02:19:10;;;;;;;;;;;;;;;24.94;45.64;99799.86;1710267;82;20132;-77
2021/06/13 02:21:36;;;;;;;;;;;;;;;24.90;45.72;99799.30;1709626;82;20144;-77
2021/06/13 02:24:03;;;;;;;;;;;;;;;24.86;45.81;99791.34;1735925;82;20299;-76
2021/06/13 02:26:30;;;;;;;;;;;;;;;24.80;45.90;99789.95;1716802;82;20175;-76
2021/06/13 02:28:57;;;;;;;;;;;;;;;24.79;45.93;99797.87;1681173;84;20488;-76
2021/06/13 02:31:25;;;;;;;;;;;;;;;24.77;45.98;99802.81;1711643;82;20455;-76
2021/06/13 02:33:52;;;;;;;;;;;;;;;24.78;45.95;99797.59;1716824;81;20180;-77
2021/06/13 02:36:18;;;;;;;;;;;;;;;24.79;45.92;99797.87;1718793;82;20145;-77
2021/06/13 02:38:54;;;;;;;;;;;;;;;24.80;45.96;99800.91;1717136;82;20454;-76
2021/06/13 02:41:21;;;;;;;;;;;;;;;24.84;45.94;99789.40;1715871;82;20174;-76
2021/06/13 02:43:48;;;;;;;;;;;;;;;24.89;45.91;99789.41;1717438;82;20138;-76
2021/06/13 02:46:15;;;;;;;;;;;;;;;24.93;45.82;99783.67;1719797;82;20176;-76
2021/06/13 02:48:41;;;;;;;;;;;;;;;24.99;45.73;99783.98;1723327;83;20175;-77
2021/06/13 02:51:09;;;;;;;;;;;;;;;25.04;45.62;99786.73;1726453;82;20137;-76
2021/06/13 02:53:44;;;;;;;;;;;;;;;25.09;45.52;99781.30;1730849;82;20160;-76
2021/06/13 02:56:18;;;;;;;;;;;;;;;25.14;45.43;99780.48;1735949;82;20168;-76
2021/06/13 02:58:51;;;;;;;;;;;;;;;25.16;45.34;99779.11;1736319;82;20227;-76
2021/06/13 03:01:18;;;;;;;;;;;;;;;25.20;45.24;99780.21;1736030;82;20149;-78
2021/06/13 03:03:45;;;;;;;;;;;;;;;25.24;45.06;99772.28;1736936;82;20140;-76
2021/06/13 03:06:17;;;;;;;;;;;;;;;25.26;45.00;99772.84;1736885;82;20160;-76
2021/06/13 03:08:44;;;;;;;;;;;;;;;25.27;44.99;99773.11;1734334;82;20133;-76
2021/06/13 03:11:10;;;;;;;;;;;;;;;25.30;44.90;99773.95;1720904;82;20186;-79
2021/06/13 03:13:39;;;;;;;;;;;;;;;25.32;44.78;99768.19;1736801;82;20446;-76
2021/06/13 03:16:05;;;;;;;;;;;;;;;25.33;44.70;99762.97;1731128;82;20157;-76
2021/06/13 03:18:31;;;;;;;;;;;;;;;25.34;44.57;99761.87;1707550;83;20176;-76
2021/06/13 03:20:58;;;;;;;;;;;;;;;25.33;44.62;99761.60;1691315;84;20141;-76
2021/06/13 03:23:25;;;;;;;;;;;;;;;25.32;44.62;99758.59;1707775;83;20125;-76
2021/06/13 03:25:51;;;;;;;;;;;;;;;25.32;44.68;99751.19;1691380;84;20179;-78
2021/06/13 03:28:18;;;;;;;;;;;;;;;25.32;44.70;99753.11;1708260;83;20145;-78
2021/06/13 03:30:45;;;;;;;;;;;;;;;25.32;44.83;99751.73;1707959;83;20141;-78
2021/06/13 03:33:11;;;;;;;;;;;;;;;25.29;44.88;99752.55;1711025;82;20476;-78
2021/06/13 03:35:37;;;;;;;;;;;;;;;25.29;44.93;99752.55;1720368;82;20230;-76
2021/06/13 03:38:06;;;;;;;;;;;;;;;25.29;44.87;99747.06;1713945;83;20486;-76
2021/06/13 03:40:32;;;;;;;;;;;;;;;25.33;44.74;99751.45;1698162;83;20168;-76
2021/06/13 03:42:59;;;;;;;;;;;;;;;25.35;44.74;99745.72;1676518;84;20172;-76
2021/06/13 03:45:26;;;;;;;;;;;;;;;25.39;44.71;99744.05;1705217;83;20178;-76
2021/06/13 03:47:52;;;;;;;;;;;;;;;25.42;44.70;99749.81;1720634;82;20202;-76
2021/06/13 03:50:19;;;;;;;;;;;;;;;25.49;44.53;99748.19;1742981;82;20164;-78
2021/06/13 03:52:46;;;;;;;;;;;;;;;25.53;44.28;99752.03;1751370;82;20182;-76
2021/06/13 03:55:12;;;;;;;;;;;;;;;25.57;44.05;99746.25;1751193;82;20158;-76
2021/06/13 03:57:42;;;;;;;;;;;;;;;25.60;43.90;99748.45;1752419;82;20143;-76
2021/06/13 04:00:09;;;;;;;;;;;;;;;25.63;43.90;99746.54;1751597;82;20475;-76
2021/06/13 04:02:40;;;;;;;;;;;;;;;25.67;43.80;99742.70;1752315;82;20432;-77
2021/06/13 04:05:07;;;;;;;;;;;;;;;25.70;43.75;99746.25;1751524;82;20206;-76
2021/06/13 04:07:33;;;;;;;;;;;;;;;25.73;43.65;99746.53;1700055;82;20177;-76
2021/06/13 04:09:59;;;;;;;;;;;;;;;25.76;43.64;99747.39;1751458;82;20766;-77
2021/06/13 04:12:26;;;;;;;;;;;;;;;25.80;43.57;99744.38;1752347;82;20159;-76
2021/06/13 04:14:53;;;;;;;;;;;;;;;25.84;43.30;99739.68;1752468;82;20139;-76
2021/06/13 04:17:19;;;;;;;;;;;;;;;25.88;43.33;99742.97;1746923;82;20210;-77
2021/06/13 04:19:47;;;;;;;;;;;;;;;25.94;43.18;99738.32;1748643;82;20170;-77
2021/06/13 04:22:15;;;;;;;;;;;;;;;25.97;43.16;99736.38;1726900;81;20145;-78
2021/06/13 04:24:42;;;;;;;;;;;;;;;25.98;43.04;99740.75;1730010;82;20473;-77
2021/06/13 04:27:09;;;;;;;;;;;;;;;26.03;43.13;99736.66;1731922;83;20095;-77
2021/06/13 04:29:36;;;;;;;;;;;;;;;26.10;43.11;99745.41;1741189;81;20158;-77
2021/06/13 04:32:02;;;;;;;;;;;;;;;26.16;43.11;99736.08;1745405;81;20428;-77
2021/06/13 04:34:29;;;;;;;;;;;;;;;26.22;43.14;99738.25;1733986;81;20202;-77
2021/06/13 04:36:55;;;;;;;;;;;;;;;26.27;43.18;99736.30;1735260;82;20222;-77
2021/06/13 04:39:21;;;;;;;;;;;;;;;26.35;43.18;99738.21;1736461;81;20197;-78
2021/06/13 04:41:47;;;;;;;;;;;;;;;26.42;42.96;99728.55;1730963;82;20223;-78
2021/06/13 04:44:13;;;;;;;;;;;;;;;26.50;42.96;99729.38;1684473;84;20162;-78
2021/06/13 04:46:39;;;;;;;;;;;;;;;26.58;43.00;99732.66;1703596;84;20244;-78
2021/06/13 04:49:05;;;;;;;;;;;;;;;26.66;43.03;99730.15;1709642;82;20167;-78
2021/06/13 04:51:31;;;;;;;;;;;;;;;26.72;42.73;99733.13;1722331;82;20325;-78
2021/06/13 04:54:02;;;;;;;;;;;;;;;26.76;42.80;99731.46;1718082;82;20441;-77
2021/06/13 04:56:55;;;;;;;;;;;;;;;26.86;42.42;99733.88;1729521;82;20173;-77
2021/06/13 04:59:21;;;;;;;;;;;;;;;26.94;42.38;99731.92;1708825;82;20300;-77
2021/06/13 05:01:47;;;;;;;;;;;;;;;27.04;42.05;99732.67;1725975;82;20265;-77
2021/06/13 05:04:13;;;;;;;;;;;;;;;27.12;41.93;99729.91;1712378;82;20159;-77
2021/06/13 05:06:42;;;;;;;;;;;;;;;27.19;41.84;99731.77;1724541;82;20180;-77
2021/06/13 05:09:08;;;;;;;;;;;;;;;27.27;41.88;99732.54;1716529;83;20172;-77
2021/06/13 05:11:35;;;;;;;;;;;;;;;27.35;41.86;99738.55;1697817;83;20207;-77
2021/06/13 05:14:01;;;;;;;;;;;;;;;27.37;41.77;99740.45;1709972;82;20438;-77
2021/06/13 05:16:27;;;;;;;;;;;;;;;27.39;41.70;99732.71;1679592;83;20390;-77
2021/06/13 05:18:53;;;;;;;;;;;;;;;27.44;41.23;99734.89;1750803;82;20198;-77
2021/06/13 05:21:19;;;;;;;;;;;;;;;27.50;41.24;99733.73;1723107;82;20172;-77
2021/06/13 05:23:46;;;;;;;;;;;;;;;27.57;41.42;99733.42;1701207;83;20140;-77
2021/06/13 05:26:12;;;;;;;;;;;;;;;27.61;41.29;99733.64;1719691;82;20168;-77
2021/06/13 05:28:39;;;;;;;;;;;;;;;27.66;41.17;99740.47;1711276;82;20294;-77
2021/06/13 05:31:06;;;;;;;;;;;;;;;27.68;41.15;99735.52;1719492;82;20136;-77
2021/06/13 05:33:32;;;;;;;;;;;;;;;27.72;41.19;99737.43;1713243;83;20187;-77
2021/06/13 05:36:01;;;;;;;;;;;;;;;27.76;41.40;99731.61;1717045;83;20769;-77
2021/06/13 05:38:27;;;;;;;;;;;;;;;27.81;41.42;99738.45;1714386;83;20179;-77
2021/06/13 05:40:54;;;;;;;;;;;;;;;27.86;41.55;99736.20;1704617;83;20176;-77
2021/06/13 05:43:20;;;;;;;;;;;;;;;27.91;41.53;99734.77;1733101;82;20192;-77
2021/06/13 05:45:47;;;;;;;;;;;;;;;27.97;41.34;99735.53;1711949;83;20184;-77
2021/06/13 05:48:13;;;;;;;;;;;;;;;28.04;41.45;99734.64;1717335;83;20137;-77
2021/06/13 05:50:39;;;;;;;;;;;;;;;28.08;41.36;99737.08;1680916;81;20521;-78
2021/06/13 05:53:06;;;;;;;;;;;;;;;28.13;41.31;99737.02;1720984;83;20332;-78
2021/06/13 05:55:32;;;;;;;;;;;;;;;28.19;41.29;99739.97;1748703;82;20125;-77
2021/06/13 05:57:58;;;;;;;;;;;;;;;28.30;41.18;99732.44;1734071;82;20187;-77
2021/06/13 06:00:27;;;;;;;;;;;;;;;28.41;41.21;99734.53;1724701;82;20770;-77
2021/06/13 06:02:53;;;;;;;;;;;;;;;28.52;40.99;99736.88;1706942;82;20187;-77
2021/06/13 06:05:20;;;;;;;;;;;;;;;28.63;40.80;99735.36;1711934;82;20174;-77
2021/06/13 06:07:46;;;;;;;;;;;;;;;28.72;40.24;99738.54;1726966;82;20153;-77
2021/06/13 06:10:13;;;;;;;;;;;;;;;28.81;40.24;99732.63;1708585;82;20136;-77
2021/06/13 06:12:39;;;;;;;;;;;;;;;28.92;40.32;99726.96;1720791;82;20180;-77
2021/06/13 06:15:06;;;;;;;;;;;;;;;29.08;40.33;99731.18;1729790;82;20199;-77
2021/06/13 06:17:33;;;;;;;;;;;;;;;29.19;39.39;99729.89;1711429;83;20170;-77
2021/06/13 06:19:59;;;;;;;;;;;;;;;29.30;39.47;99736.09;1711355;83;20310;-77
2021/06/13 06:22:26;;;;;;;;;;;;;;;29.43;39.45;99731.16;1712182;82;20449;-77
2021/06/13 06:24:52;;;;;;;;;;;;;;;29.59;38.84;99719.34;1700559;83;20208;-77
2021/06/13 06:27:18;;;;;;;;;;;;;;;29.77;38.71;99723.17;1706068;84;20463;-78
2021/06/13 06:29:44;;;;;;;;;;;;;;;29.96;38.70;99724.48;1710980;82;20186;-78
2021/06/13 06:32:10;;;;;;;;;;;;;;;30.16;38.57;99722.77;1736617;82;20277;-78
2021/06/13 06:34:37;;;;;;;;;;;;;;;30.38;37.78;99721.20;1736076;82;20172;-78
2021/06/13 06:37:04;;;;;;;;;;;;;;;30.53;37.11;99712.61;1736048;82;20278;-78
2021/06/13 06:39:30;;;;;;;;;;;;;;;30.66;36.53;99724.22;1735588;82;20184;-78
2021/06/13 06:41:56;;;;;;;;;;;;;;;30.76;35.60;99718.48;1736268;82;20484;-79
2021/06/13 06:44:22;;;;;;;;;;;;;;;30.82;35.79;99718.62;1737090;82;20202;-78
2021/06/13 06:46:50;;;;;;;;;;;;;;;30.94;35.17;99725.57;1737654;82;20142;-78
2021/06/13 06:49:16;;;;;;;;;;;;;;;31.03;35.31;99718.16;1737084;82;20242;-76
2021/06/13 06:51:41;;;;;;;;;;;;;;;31.19;34.85;99720.80;1737364;82;20713;-78
2021/06/13 06:54:08;;;;;;;;;;;;;;;31.31;34.38;99705.89;1736642;82;20207;-78
2021/06/13 06:56:33;;;;;;;;;;;;;;;31.48;34.51;99708.53;1734812;82;20425;-77
2021/06/13 06:59:00;;;;;;;;;;;;;;;31.69;33.85;99711.00;1734870;82;20175;-77
2021/06/13 07:01:26;;;;;;;;;;;;;;;31.84;33.46;99707.06;1735365;82;20191;-77
2021/06/13 07:03:52;;;;;;;;;;;;;;;32.01;33.45;99707.12;1735174;82;20179;-77
2021/06/13 07:06:18;;;;;;;;;;;;;;;32.20;33.33;99708.25;1734929;82;20820;-78
2021/06/13 07:08:44;;;;;;;;;;;;;;;32.40;33.14;99703.31;1734929;82;20177;-78
2021/06/13 07:11:10;;;;;;;;;;;;;;;32.54;32.08;99699.27;1734889;82;20419;-78
2021/06/13 07:13:37;;;;;;;;;;;;;;;32.67;32.16;99702.23;1734999;82;20183;-78
2021/06/13 07:16:03;;;;;;;;;;;;;;;32.82;31.68;99703.95;1700072;82;20681;-78
2021/06/13 07:18:29;;;;;;;;;;;;;;;32.97;30.71;99700.48;1734101;82;20191;-78
2021/06/13 07:20:55;;;;;;;;;;;;;;;32.93;30.94;99698.11;1731070;82;20261;-78
2021/06/13 07:23:22;;;;;;;;;;;;;;;32.89;31.60;99687.41;1733437;82;20230;-78
2021/06/13 07:25:48;;;;;;;;;;;;;;;32.97;31.36;99701.86;1730864;82;20748;-77
2021/06/13 07:28:14;;;;;;;;;;;;;;;32.91;30.62;99705.95;1714704;82;20179;-78
2021/06/13 07:30:40;;;;;;;;;;;;;;;32.80;30.25;99701.27;1733132;82;20475;-77
2021/06/13 07:33:06;;;;;;;;;;;;;;;32.77;30.53;99695.79;1712155;82;20516;-77
2021/06/13 07:35:32;;;;;;;;;;;;;;;32.84;30.66;99695.33;1714102;82;20186;-78
2021/06/13 07:38:00;;;;;;;;;;;;;;;32.95;30.36;99690.29;1712430;83;20271;-78
2021/06/13 07:40:27;;;;;;;;;;;;;;;33.05;30.03;99688.57;1712527;83;20561;-78
2021/06/13 07:42:53;;;;;;;;;;;;;;;33.09;30.16;99674.29;1718698;82;20203;-78
2021/06/13 07:45:19;;;;;;;;;;;;;;;33.18;29.45;99684.81;1721248;83;20270;-78
2021/06/13 07:47:45;;;;;;;;;;;;;;;33.23;29.30;99685.22;1689188;83;20249;-78
2021/06/13 07:50:12;;;;;;;;;;;;;;;33.18;29.32;99688.97;1699925;83;20175;-78
2021/06/13 07:52:38;;;;;;;;;;;;;;;33.08;29.04;99687.35;1732611;82;20183;-78
2021/06/13 07:55:06;;;;;;;;;;;;;;;33.02;29.29;99682.28;1729523;82;21038;-78
2021/06/13 07:57:32;;;;;;;;;;;;;;;32.93;28.46;99675.38;1704265;82;20154;-78
2021/06/13 07:59:58;;;;;;;;;;;;;;;32.77;28.20;99652.80;1704398;82;20142;-78
2021/06/13 08:02:24;;;;;;;;;;;;;;;32.73;28.50;99677.35;1704664;84;20225;-79
2021/06/13 08:04:55;;;;;;;;;;;;;;;32.70;28.66;99657.19;1716655;82;20198;-78
2021/06/13 08:07:18;;;;;;;;;;;;;;;32.71;29.22;99658.28;1734742;82;20148;-78
2021/06/13 08:09:45;;;;;;;;;;;;;;;32.74;28.61;99656.80;1733887;82;20183;-78
2021/06/13 08:12:11;;;;;;;;;;;;;;;32.77;28.85;99656.16;1733826;82;20257;-77
2021/06/13 08:14:38;;;;;;;;;;;;;;;32.82;28.53;99653.21;1728904;82;20504;-77
2021/06/13 08:17:04;;;;;;;;;;;;;;;32.87;28.59;99654.43;1704420;84;20226;-77
2021/06/13 08:19:31;;;;;;;;;;;;;;;32.90;28.14;99663.50;1704803;84;20202;-79
2021/06/13 08:21:57;;;;;;;;;;;;;;;32.88;28.82;99639.98;1705362;84;20171;-76
2021/06/13 08:24:23;;;;;;;;;;;;;;;32.97;29.02;99644.99;1721861;82;20218;-77
2021/06/13 08:26:49;;;;;;;;;;;;;;;33.01;28.89;99638.46;1709151;82;20185;-77
2021/06/13 08:29:14;;;;;;;;;;;;;;;33.02;29.38;99644.82;1718733;82;20315;-77
2021/06/13 08:31:40;;;;;;;;;;;;;;;33.07;29.34;99650.23;1707059;82;20197;-78
2021/06/13 08:34:07;;;;;;;;;;;;;;;33.11;28.36;99659.50;1704368;82;20214;-77
2021/06/13 08:36:34;;;;;;;;;;;;;;;32.93;28.14;99652.33;1705145;82;20205;-78
2021/06/13 08:39:00;;;;;;;;;;;;;;;32.66;28.70;99650.13;1704777;82;20216;-78
2021/06/13 08:41:26;;;;;;;;;;;;;;;32.51;29.30;99654.16;1710594;82;20209;-77
2021/06/13 08:43:52;;;;;;;;;;;;;;;32.46;29.32;99656.28;1705540;84;20570;-77
2021/06/13 08:46:18;;;;;;;;;;;;;;;32.37;29.29;99670.11;1678672;84;20507;-77
2021/06/13 08:48:47;;;;;;;;;;;;;;;32.17;29.18;99659.61;1655765;84;20184;-77
2021/06/13 08:51:13;;;;;;;;;;;;;;;32.38;29.21;99663.42;1707451;82;20151;-77
2021/06/13 08:53:44;;;;;;;;;;;;;;;32.40;29.84;99665.89;1704213;84;20170;-77
2021/06/13 08:56:09;;;;;;;;;;;;;;;31.93;31.08;99671.92;1706055;82;20146;-77
2021/06/13 08:58:36;;;;;;;;;;;;;;;31.70;34.98;99683.56;1704745;84;20154;-77
2021/06/13 09:01:02;;;;;;;;;;;;;;;31.43;36.47;99697.02;1705825;84;20154;-78
2021/06/13 09:03:28;;;;;;;;;;;;;;;31.11;36.59;99699.98;1705687;84;20177;-77
2021/06/13 09:05:55;;;;;;;;;;;;;;;30.72;37.36;99713.32;1705996;82;20172;-77
2021/06/13 09:08:21;;;;;;;;;;;;;;;30.34;36.43;99725.14;1707686;82;20246;-78
2021/06/13 09:10:49;;;;;;;;;;;;;;;29.89;36.33;99724.90;1705239;84;20166;-78
2021/06/13 09:13:19;;;;;;;;;;;;;;;29.51;36.94;99730.48;1680191;82;20415;-78
2021/06/13 09:15:53;;;;;;;;;;;;;;;29.09;36.68;99709.38;1736188;82;20152;-78
2021/06/13 09:18:38;;;;;;;;;;;;;;;28.78;37.97;99696.56;1721156;82;20161;-78
2021/06/13 09:21:10;;;;;;;;;;;;;;;28.69;38.54;99705.23;1735207;82;20419;-78
2021/06/13 09:23:38;;;;;;;;;;;;;;;28.64;38.75;99699.80;1735088;82;20148;-78
2021/06/13 09:26:15;;;;;;;;;;;;;;;28.59;39.77;99700.69;1734801;82;20145;-78
2021/06/13 09:28:42;;;;;;;;;;;;;;;28.47;39.19;99691.46;1733947;82;20156;-77
2021/06/13 09:31:21;;;;;;;;;;;;;;;28.33;39.83;99672.05;1734654;82;20755;-77
2021/06/13 09:33:49;;;;;;;;;;;;;;;28.33;39.95;99667.91;1735314;82;20164;-77
2021/06/13 09:36:19;;;;;;;;;;;;;;;28.21;40.02;99670.86;1735406;82;20172;-77
2021/06/13 09:38:46;;;;;;;;;;;;;;;28.15;40.01;99675.58;1729757;82;20124;-77
2021/06/13 09:41:18;;;;;;;;;;;;;;;28.11;39.90;99659.38;1733491;82;20108;-78
2021/06/13 09:43:47;;;;;;;;;;;;;;;28.08;41.49;99657.80;1732737;82;20462;-77
2021/06/13 09:46:18;;;;;;;;;;;;;;;28.08;42.90;99650.36;1733667;82;20145;-77
2021/06/13 09:48:56;;;;;;;;;;;;;;;28.09;43.81;99645.66;1732947;82;20197;-78
2021/06/13 09:51:23;;;;;;;;;;;;;;;28.17;44.12;99645.84;1731658;81;20184;-78
2021/06/13 09:53:51;;;;;;;;;;;;;;;28.54;43.70;99651.98;1733225;82;20368;-77
2021/06/13 09:56:26;;;;;;;;;;;;;;;28.21;42.90;99673.61;1715169;82;20404;-77
2021/06/13 09:59:12;;;;;;;;;;;;;;;28.09;41.62;99671.26;1700086;84;20142;-76
2021/06/13 10:01:49;;;;;;;;;;;;;;;27.90;42.03;99673.14;1704806;84;20448;-77
2021/06/13 10:04:23;;;;;;;;;;;;;;;27.81;42.58;99672.39;1705145;84;20158;-76
2021/06/13 10:06:55;;;;;;;;;;;;;;;27.79;41.91;99652.58;1718198;82;20116;-77
2021/06/13 10:09:22;;;;;;;;;;;;;;;28.10;41.09;99652.24;1713399;82;20130;-77
2021/06/13 10:11:51;;;;;;;;;;;;;;;28.21;40.08;99641.38;1705979;84;20210;-77
2021/06/13 10:14:17;;;;;;;;;;;;;;;28.24;41.39;99632.51;1710424;82;20451;-77
2021/06/13 10:16:49;;;;;;;;;;;;;;;28.21;39.12;99622.11;1705027;83;20137;-78
2021/06/13 10:19:18;;;;;;;;;;;;;;;28.21;40.78;99611.09;1705133;83;20205;-78
2021/06/13 10:21:47;;;;;;;;;;;;;;;28.01;42.46;99611.34;1704883;83;20145;-77
2021/06/13 10:24:18;;;;;;;;;;;;;;;27.80;43.63;99620.41;1704899;84;20142;-78
2021/06/13 10:26:53;;;;;;;;;;;;;;;27.78;43.67;99626.19;1727399;82;20159;-77
2021/06/13 10:29:19;;;;;;;;;;;;;;;28.21;43.14;99613.84;1705996;83;20101;-76
2021/06/13 10:31:47;;;;;;;;;;;;;;;28.36;42.64;99606.52;1750839;82;20138;-79
2021/06/13 10:34:14;;;;;;;;;;;;;;;28.39;42.69;99601.77;1750076;82;20154;-76
2021/06/13 10:36:41;;;;;;;;;;;;;;;28.41;42.31;99587.98;1744530;82;20160;-76
2021/06/13 10:39:12;;;;;;;;;;;;;;;28.43;42.35;99579.41;1725536;82;20130;-78
2021/06/13 10:41:38;;;;;;;;;;;;;;;28.48;42.92;99587.59;1749276;82;20098;-77
2021/06/13 10:44:11;;;;;;;;;;;;;;;28.53;43.11;99592.48;1749431;82;20192;-77
2021/06/13 10:46:38;;;;;;;;;;;;;;;28.56;43.24;99598.77;1693814;83;20141;-77
2021/06/13 10:49:05;;;;;;;;;;;;;;;28.63;42.97;99607.23;1721389;83;20431;-78
2021/06/13 10:51:43;;;;;;;;;;;;;;;28.65;41.87;99621.52;1743811;81;20471;-78
2021/06/13 10:54:32;;;;;;;;;;;;;;;28.58;41.62;99629.36;1751370;81;20230;-77
2021/06/13 10:57:07;;;;;;;;;;;;;;;28.40;41.32;99634.55;1752156;82;20143;-77
2021/06/13 10:59:35;;;;;;;;;;;;;;;28.23;40.62;99630.88;1752873;81;20179;-77
2021/06/13 11:02:09;;;;;;;;;;;;;;;28.11;40.75;99627.72;1751632;82;20178;-77
2021/06/13 11:05:02;;;;;;;;;;;;;;;28.06;41.44;99627.23;1742118;82;20198;-76
2021/06/13 11:07:29;;;;;;;;;;;;;;;28.06;41.68;99620.91;1743816;82;20210;-79
2021/06/13 11:09:59;;;;;;;;;;;;;;;28.09;41.44;99622.27;1750632;82;20190;-78
2021/06/13 11:12:52;;;;;;;;;;;;;;;28.08;41.77;99627.52;1739625;82;20472;-79
2021/06/13 11:15:32;;;;;;;;;;;;;;;28.10;41.79;99626.09;1748949;82;20166;-76
2021/06/13 11:18:00;;;;;;;;;;;;;;;28.14;41.73;99631.27;1735945;81;20145;-78
2021/06/13 11:23:05;;;;;;;;;;;;;;;28.19;41.35;99620.19;1718750;83;20301;-77
2021/06/13 11:25:31;;;;;;;;;;;;;;;28.22;41.66;99619.61;1723055;83;20185;-78
2021/06/13 11:28:24;;;;;;;;;;;;;;;28.18;41.72;99620.49;1731008;82;20193;-77
2021/06/13 11:31:13;;;;;;;;;;;;;;;28.27;41.91;99615.41;1731540;82;20563;-78
2021/06/13 11:33:48;;;;;;;;;;;;;;;28.36;42.18;99620.29;1732042;82;20488;-77
2021/06/13 11:36:25;;;;;;;;;;;;;;;28.45;42.36;99622.08;1731120;82;20174;-77
2021/06/13 11:39:05;;;;;;;;;;;;;;;28.53;42.53;99618.66;1731281;82;20151;-76
2021/06/13 11:41:42;;;;;;;;;;;;;;;28.62;42.39;99616.62;1731050;82;20162;-76
2021/06/13 11:44:12;;;;;;;;;;;;;;;28.70;41.68;99620.87;1731777;82;20166;-77
2021/06/13 11:46:41;;;;;;;;;;;;;;;28.78;41.71;99627.09;1732331;82;20152;-77
2021/06/13 11:49:10;;;;;;;;;;;;;;;28.85;41.47;99611.58;1732273;82;20167;-77
2021/06/13 11:51:57;;;;;;;;;;;;;;;28.92;41.31;99611.17;1730026;81;20198;-77
2021/06/13 11:54:32;;;;;;;;;;;;;;;28.99;41.39;99608.34;1731203;82;20169;-77
2021/06/13 11:57:06;;;;;;;;;;;;;;;29.04;40.62;99619.84;1731589;82;20174;-78
2021/06/13 11:59:36;;;;;;;;;;;;;;;29.06;40.24;99620.34;1731725;82;20174;-79
2021/06/13 12:02:04;;;;;;;;;;;;;;;29.08;40.18;99634.67;1698853;84;20172;-77
2021/06/13 12:04:29;;;;;;;;;;;;;;;29.05;39.66;99654.56;1700312;83;20478;-78
2021/06/13 12:06:56;;;;;;;;;;;;;;;29.04;39.74;99666.72;1701282;83;20174;-78
2021/06/13 12:09:24;;;;;;;;;;;;;;;28.99;40.04;99655.20;1692566;84;20139;-77
2021/06/13 12:11:53;;;;;;;;;;;;;;;28.94;40.52;99638.72;1706521;84;20171;-77
2021/06/13 12:14:22;;;;;;;;;;;;;;;28.92;40.80;99624.40;1706993;84;20337;-77
2021/06/13 12:16:51;;;;;;;;;;;;;;;28.87;41.07;99623.66;1715935;82;20487;-77
2021/06/13 12:19:25;;;;;;;;;;;;;;;28.82;40.73;99608.03;1702314;84;20193;-76
2021/06/13 12:21:51;;;;;;;;;;;;;;;28.75;40.56;99632.38;1703239;84;20562;-76
2021/06/13 12:29:40;;;;;;;;;;;;;;;28.53;41.78;99644.02;1682701;82;20180;-77
2021/06/13 12:32:13;;;;;;;;;;;;;;;28.49;41.66;99636.09;1665204;84;20443;-77
2021/06/13 12:34:39;;;;;;;;;;;;;;;28.42;41.92;99625.98;1706267;83;20126;-77
2021/06/13 12:37:06;;;;;;;;;;;;;;;28.18;42.15;99636.45;1728340;82;20254;-77
2021/06/13 12:39:32;;;;;;;;;;;;;;;28.23;42.56;99652.91;1735693;82;20141;-77
2021/06/13 12:42:09;;;;;;;;;;;;;;;28.11;42.34;99650.30;1735226;82;20128;-77
2021/06/13 12:44:37;;;;;;;;;;;;;;;27.90;43.06;99651.13;1734579;82;20184;-77
2021/06/13 12:47:05;;;;;;;;;;;;;;;27.46;44.32;99644.64;1735461;82;20203;-77
2021/06/13 12:49:39;;;;;;;;;;;;;;;27.29;44.84;99639.56;1735269;82;20097;-77
2021/06/13 12:52:17;;;;;;;;;;;;;;;27.31;44.72;99637.92;1734838;82;20205;-78
2021/06/13 12:54:45;;;;;;;;;;;;;;;27.24;44.98;99640.98;1734293;82;20169;-77
2021/06/13 12:57:11;;;;;;;;;;;;;;;27.19;44.74;99638.29;1706749;82;20201;-77
2021/06/13 12:59:38;;;;;;;;;;;;;;;27.15;44.80;99665.27;1706598;82;20246;-78
2021/06/13 13:02:06;;;;;;;;;;;;;;;27.01;44.77;99682.94;1706502;83;20135;-77
2021/06/13 13:04:53;;;;;;;;;;;;;;;26.72;45.17;99689.17;1706185;84;20196;-78